Time;durP1;ratioP1;P1;durP2;ratioP2;P2;SDS_P1;SDS_P2;PMS_P1;PMS_P2;Temp;Humidity;BMP_temperature;BMP_pressure;BME280_temperature;BME280_humidity;BME280_pressure;Samples;Min_cycle;Max_cycle;Signal;HPM_P1;HPM_P2
2023/03/30 00:02:49;;;;;;;39.00;22.47;;;4.90;1.00;;;;;;8303776;28;20188;-83
2023/03/30 00:06:51;;;;;;;29.77;17.33;;;4.90;1.00;;;;;;8303970;28;20671;-83
2023/03/30 00:11:12;;;;;;;31.47;18.03;;;4.90;9.30;;;;;;8320628;28;20203;-81
2023/03/30 00:15:15;;;;;;;33.67;19.13;;;4.90;19.00;;;;;;8305837;28;20226;-82
2023/03/30 00:19:16;;;;;;;29.60;17.40;;;4.80;35.60;;;;;;8301914;28;20206;-82
2023/03/30 00:23:18;;;;;;;26.67;16.40;;;4.80;85.90;;;;;;8310209;28;20206;-83
2023/03/30 00:27:18;;;;;;;21.77;14.13;;;4.80;99.90;;;;;;8308682;28;20191;-83
2023/03/30 00:31:19;;;;;;;13.77;9.50;;;4.90;99.90;;;;;;8312235;28;20280;-83
2023/03/30 00:35:20;;;;;;;11.37;7.37;;;5.00;99.90;;;;;;8307308;28;20615;-83
2023/03/30 00:39:22;;;;;;;6.77;5.37;;;5.10;99.90;;;;;;8303512;28;20217;-83
2023/03/30 00:43:24;;;;;;;7.70;5.80;;;5.30;99.90;;;;;;8308833;28;20241;-83
2023/03/30 00:47:25;;;;;;;7.30;5.60;;;5.40;99.90;;;;;;8312322;28;20427;-83
2023/03/30 00:51:27;;;;;;;6.87;5.20;;;5.60;67.30;;;;;;8306492;28;20271;-83
2023/03/30 00:55:30;;;;;;;6.60;5.00;;;5.80;2.20;;;;;;8303737;28;20190;-83
2023/03/30 00:59:32;;;;;;;5.77;5.13;;;6.00;1.00;;;;;;8300167;28;20301;-83
2023/03/30 01:03:36;;;;;;;5.93;4.83;;;6.10;1.00;;;;;;8298231;28;20201;-83
2023/03/30 01:07:39;;;;;;;6.40;4.90;;;6.20;1.00;;;;;;8304341;28;20187;-84
2023/03/30 01:11:42;;;;;;;6.23;4.37;;;6.40;1.00;;;;;;8310911;28;20301;-82
2023/03/30 01:16:06;;;;;;;5.07;4.03;;;6.50;1.00;;;;;;8298949;28;20195;-82
2023/03/30 01:20:23;;;;;;;4.93;4.17;;;6.60;99.90;;;;;;8309493;28;20232;-83
2023/03/30 01:24:52;;;;;;;4.47;3.77;;;6.60;99.90;;;;;;8299666;28;20187;-83
2023/03/30 01:29:01;;;;;;;5.33;3.87;;;6.70;99.90;;;;;;8293329;28;20620;-83
2023/03/30 01:33:03;;;;;;;6.77;4.27;;;6.80;99.90;;;;;;8306936;28;20220;-83
2023/03/30 01:37:16;;;;;;;5.00;3.80;;;6.80;99.90;;;;;;8305284;28;20209;-83
2023/03/30 01:41:32;;;;;;;5.90;4.57;;;6.90;99.90;;;;;;8309569;28;20191;-84
2023/03/30 01:45:56;;;;;;;6.50;4.40;;;6.90;99.90;;;;;;8305957;28;20561;-82
2023/03/30 01:50:11;;;;;;;8.30;4.60;;;7.00;99.90;;;;;;8314320;28;20530;-82
2023/03/30 01:54:19;;;;;;;5.43;3.63;;;7.20;99.90;;;;;;8322229;28;20225;-84
2023/03/30 01:58:35;;;;;;;5.80;4.20;;;7.20;99.90;;;;;;8334110;28;20265;-85
2023/03/30 02:02:37;;;;;;;5.37;4.20;;;7.30;99.90;;;;;;8331838;28;20577;-82
2023/03/30 02:06:55;;;;;;;7.90;4.47;;;7.40;99.90;;;;;;8313943;28;20225;-82
2023/03/30 02:10:57;;;;;;;4.77;3.70;;;7.40;99.90;;;;;;8304114;28;20217;-83
2023/03/30 02:15:03;;;;;;;6.90;4.20;;;7.50;99.90;;;;;;8301840;28;20186;-83
2023/03/30 02:19:05;;;;;;;7.73;5.00;;;7.60;99.90;;;;;;8303622;28;20191;-83
2023/03/30 02:23:06;;;;;;;5.80;4.23;;;7.60;99.90;;;;;;8304532;28;20187;-83
2023/03/30 02:27:07;;;;;;;5.63;4.67;;;7.70;99.90;;;;;;8299668;28;20199;-83
2023/03/30 02:31:12;;;;;;;4.83;3.97;;;7.60;99.90;;;;;;8311743;28;20214;-82
2023/03/30 02:35:44;;;;;;;5.87;4.60;;;7.60;99.90;;;;;;8295586;28;20289;-83
2023/03/30 02:40:01;;;;;;;7.30;4.73;;;7.60;1.00;;;;;;8306444;28;20184;-82
2023/03/30 02:44:29;;;;;;;6.50;4.33;;;7.70;1.00;;;;;;8303273;28;20197;-82
2023/03/30 02:48:57;;;;;;;6.70;4.67;;;7.70;1.00;;;;;;8298162;28;20229;-82
2023/03/30 02:53:13;;;;;;;5.10;4.40;;;7.70;1.00;;;;;;8307246;28;20190;-83
2023/03/30 02:57:43;;;;;;;5.60;3.70;;;7.70;1.00;;;;;;8300787;28;20186;-81
2023/03/30 03:02:16;;;;;;;5.87;4.07;;;7.70;1.00;;;;;;8304134;28;20190;-83
2023/03/30 03:06:19;;;;;;;5.67;4.23;;;7.70;1.00;;;;;;8303920;28;20195;-82
2023/03/30 03:10:20;;;;;;;7.93;5.30;;;7.70;1.00;;;;;;8303923;28;20203;-83
2023/03/30 03:14:21;;;;;;;7.87;5.30;;;7.70;1.00;;;;;;8302880;28;20186;-83
2023/03/30 03:18:23;;;;;;;5.10;4.60;;;7.70;1.00;;;;;;8299968;28;20190;-82
2023/03/30 03:22:24;;;;;;;6.83;4.80;;;7.70;1.00;;;;;;8308927;28;20277;-83
2023/03/30 03:26:25;;;;;;;7.00;5.20;;;7.70;1.00;;;;;;8309705;28;20443;-81
2023/03/30 03:30:27;;;;;;;6.83;5.40;;;7.60;1.00;;;;;;8309273;28;20207;-81
2023/03/30 03:34:30;;;;;;;6.10;5.27;;;7.60;1.00;;;;;;8314592;28;20551;-82
2023/03/30 03:38:31;;;;;;;5.03;4.47;;;7.60;5.00;;;;;;8310280;28;20191;-83
2023/03/30 03:42:32;;;;;;;7.03;5.70;;;7.60;25.30;;;;;;8306125;28;20285;-83
2023/03/30 03:46:33;;;;;;;7.37;4.77;;;7.50;59.30;;;;;;8310328;28;20194;-82
2023/03/30 03:50:34;;;;;;;8.67;5.60;;;7.50;81.40;;;;;;8313887;28;20202;-83
2023/03/30 03:54:35;;;;;;;6.67;5.37;;;7.50;98.30;;;;;;8306409;28;20179;-83
2023/03/30 03:58:36;;;;;;;6.30;5.23;;;7.50;91.60;;;;;;8312221;28;20186;-83
2023/03/30 04:02:37;;;;;;;7.13;5.03;;;7.60;88.20;;;;;;8310291;28;20195;-82
2023/03/30 04:06:38;;;;;;;7.07;5.10;;;7.60;85.90;;;;;;8308180;28;20273;-83
2023/03/30 04:10:40;;;;;;;8.43;5.77;;;7.60;74.40;;;;;;8309409;28;20201;-82
2023/03/30 04:14:41;;;;;;;7.93;5.90;;;7.60;97.00;;;;;;8287618;28;20285;-84
2023/03/30 04:18:42;;;;;;;9.50;6.20;;;7.60;79.60;;;;;;8311095;28;20241;-83
2023/03/30 04:22:45;;;;;;;11.43;6.90;;;7.60;73.90;;;;;;8303964;28;20634;-82
2023/03/30 04:26:47;;;;;;;13.80;7.87;;;7.70;68.50;;;;;;8307239;28;20210;-82
2023/03/30 04:30:49;;;;;;;9.53;6.43;;;7.70;74.30;;;;;;8308662;28;20218;-81
2023/03/30 04:34:53;;;;;;;6.83;5.67;;;7.70;30.00;;;;;;8308874;28;20203;-83
2023/03/30 04:38:58;;;;;;;6.20;5.17;;;7.70;8.30;;;;;;8313279;28;20194;-83
2023/03/30 04:43:02;;;;;;;6.57;4.83;;;7.70;1.00;;;;;;8303060;28;20187;-83
2023/03/30 04:47:03;;;;;;;5.97;4.80;;;7.60;1.00;;;;;;8297251;28;20198;-83
2023/03/30 04:51:04;;;;;;;5.87;4.40;;;7.60;10.10;;;;;;8307944;28;20211;-83
2023/03/30 04:55:05;;;;;;;6.57;4.57;;;7.60;15.90;;;;;;8308322;28;20219;-78
2023/03/30 04:59:06;;;;;;;9.40;5.80;;;7.60;17.50;;;;;;8322888;28;20422;-78
2023/03/30 05:03:07;;;;;;;7.67;5.60;;;7.70;8.50;;;;;;8311637;28;20186;-78
2023/03/30 05:07:08;;;;;;;8.70;6.73;;;7.70;1.00;;;;;;8330189;28;20182;-78
2023/03/30 05:11:10;;;;;;;7.67;5.67;;;7.70;1.00;;;;;;8343107;28;20203;-78
2023/03/30 05:15:11;;;;;;;6.73;5.77;;;7.60;1.00;;;;;;8351813;28;20234;-78
2023/03/30 05:19:12;;;;;;;6.17;5.27;;;7.60;1.00;;;;;;8352422;28;20214;-79
2023/03/30 05:23:12;;;;;;;6.03;5.00;;;7.60;11.30;;;;;;8345891;28;20179;-80
2023/03/30 05:27:13;;;;;;;6.70;5.20;;;7.60;28.00;;;;;;8335141;28;20182;-79
2023/03/30 05:31:14;;;;;;;7.77;6.23;;;7.60;90.70;;;;;;8306475;28;20210;-79
2023/03/30 05:35:15;;;;;;;7.70;6.20;;;7.60;99.90;;;;;;8307212;28;20214;-78
2023/03/30 05:39:16;;;;;;;10.50;7.07;;;7.70;99.90;;;;;;8303341;28;20201;-78
2023/03/30 05:43:18;;;;;;;8.97;6.67;;;7.80;51.20;;;;;;8312748;28;20194;-79
2023/03/30 05:47:19;;;;;;;8.10;6.77;;;7.90;1.00;;;;;;8301837;28;20296;-79
2023/03/30 05:51:20;;;;;;;10.67;7.13;;;8.00;1.00;;;;;;8297615;28;20210;-78
2023/03/30 05:55:22;;;;;;;10.63;7.07;;;8.00;1.00;;;;;;8303149;28;20209;-79
2023/03/30 05:59:23;;;;;;;7.53;6.07;;;8.10;1.00;;;;;;8309317;28;20346;-79
2023/03/30 06:03:24;;;;;;;8.33;6.47;;;8.30;1.00;;;;;;8308538;28;20199;-79
2023/03/30 06:07:25;;;;;;;9.60;6.70;;;8.40;1.00;;;;;;8301940;28;20178;-78
2023/03/30 06:11:27;;;;;;;8.13;6.33;;;8.60;1.00;;;;;;8308771;28;20214;-78
2023/03/30 06:15:28;;;;;;;8.20;6.20;;;8.70;1.00;;;;;;8309828;28;20250;-78
2023/03/30 06:19:28;;;;;;;7.37;5.53;;;8.90;1.00;;;;;;8306498;28;20524;-78
2023/03/30 06:23:29;;;;;;;9.07;7.07;;;9.10;99.90;;;;;;8309100;28;20186;-79
2023/03/30 06:27:31;;;;;;;9.77;6.83;;;9.20;99.90;;;;;;8308104;28;20185;-78
2023/03/30 06:31:32;;;;;;;7.73;6.10;;;9.30;99.90;;;;;;8305770;28;20211;-78
2023/03/30 06:35:35;;;;;;;8.57;6.23;;;9.50;99.90;;;;;;8308345;28;20210;-78
2023/03/30 06:39:36;;;;;;;6.33;5.57;;;9.60;99.90;;;;;;8306253;28;20184;-77
2023/03/30 06:43:38;;;;;;;8.80;6.37;;;9.80;99.90;;;;;;8304967;28;20288;-78
2023/03/30 06:47:42;;;;;;;9.67;5.80;;;9.90;99.90;;;;;;8310219;28;20286;-78
2023/03/30 06:51:44;;;;;;;7.23;5.77;;;10.10;99.90;;;;;;8306710;28;20329;-78
2023/03/30 06:55:51;;;;;;;6.77;5.10;;;10.40;99.90;;;;;;8311858;28;20267;-78
2023/03/30 06:59:51;;;;;;;11.30;6.27;;;10.80;99.90;;;;;;8313527;28;20289;-78
2023/03/30 07:03:52;;;;;;;5.77;4.70;;;11.20;99.90;;;;;;8314247;28;20192;-78
2023/03/30 07:07:53;;;;;;;6.80;5.23;;;11.30;99.90;;;;;;8304595;28;20198;-78
2023/03/30 07:11:54;;;;;;;6.17;4.90;;;11.30;99.90;;;;;;8314486;28;20208;-79
2023/03/30 07:15:56;;;;;;;6.80;4.60;;;11.40;99.90;;;;;;8298483;28;20183;-78
2023/03/30 07:19:57;;;;;;;6.13;5.00;;;11.50;99.90;;;;;;8300102;28;20213;-78
2023/03/30 07:24:01;;;;;;;5.23;4.13;;;11.70;99.90;;;;;;8310663;28;20187;-78
2023/03/30 07:28:05;;;;;;;6.40;4.63;;;11.90;99.90;;;;;;8310884;28;20190;-77
2023/03/30 07:32:05;;;;;;;6.30;4.40;;;12.10;99.90;;;;;;8305521;28;20203;-78
2023/03/30 07:36:07;;;;;;;6.90;4.80;;;12.20;99.90;;;;;;8303800;28;20282;-79
2023/03/30 07:40:08;;;;;;;7.10;4.63;;;12.50;99.90;;;;;;8307225;28;20183;-79
2023/03/30 07:44:09;;;;;;;7.00;4.23;;;12.70;99.90;;;;;;8308423;28;20187;-78
2023/03/30 07:48:10;;;;;;;4.73;4.03;;;12.90;99.90;;;;;;8307462;28;20193;-78
2023/03/30 07:52:11;;;;;;;5.17;4.13;;;13.20;98.40;;;;;;8304422;28;20219;-78
2023/03/30 07:56:12;;;;;;;6.17;3.67;;;13.50;77.70;;;;;;8313911;28;20179;-79
2023/03/30 08:00:13;;;;;;;4.77;3.47;;;13.90;52.80;;;;;;8310300;28;20233;-79
2023/03/30 08:04:14;;;;;;;5.37;3.57;;;14.30;34.30;;;;;;8310403;28;20241;-79
2023/03/30 08:08:15;;;;;;;4.97;3.30;;;14.60;15.70;;;;;;8308988;28;20182;-78
2023/03/30 08:12:16;;;;;;;6.40;3.63;;;15.00;5.60;;;;;;8313961;28;20213;-78
2023/03/30 08:16:17;;;;;;;4.77;2.87;;;15.40;1.00;;;;;;8302952;28;20277;-78
2023/03/30 08:20:18;;;;;;;4.10;3.03;;;15.60;1.00;;;;;;8312209;28;20226;-78
2023/03/30 08:24:19;;;;;;;5.77;3.17;;;15.70;1.00;;;;;;8308433;28;20218;-79
2023/03/30 08:28:20;;;;;;;4.97;2.77;;;15.70;1.00;;;;;;8320949;28;20183;-78
2023/03/30 08:32:21;;;;;;;3.67;2.30;;;15.60;1.00;;;;;;8320347;28;20297;-78
2023/03/30 08:36:21;;;;;;;5.43;2.40;;;15.50;1.00;;;;;;8329620;28;20207;-78
2023/03/30 08:40:22;;;;;;;5.77;2.83;;;15.60;1.00;;;;;;8346921;28;20183;-79
2023/03/30 08:44:36;;;;;;;5.40;2.60;;;15.50;1.00;;;;;;8350294;28;20193;-79
2023/03/30 08:48:38;;;;;;;5.07;3.00;;;15.80;1.00;;;;;;8346558;28;20168;-79
2023/03/30 08:52:41;;;;;;;5.60;3.20;;;16.00;1.00;;;;;;8347919;28;20207;-79
2023/03/30 08:56:56;;;;;;;7.43;2.80;;;16.30;1.00;;;;;;8338393;28;20207;-79
2023/03/30 09:01:12;;;;;;;4.70;2.53;;;16.40;1.00;;;;;;8306115;28;20240;-78
2023/03/30 09:05:22;;;;;;;4.53;2.47;;;16.60;1.00;;;;;;8308920;28;20199;-79
2023/03/30 09:09:30;;;;;;;5.20;2.30;;;16.90;1.00;;;;;;8322124;28;20218;-78
2023/03/30 09:13:36;;;;;;;4.67;2.47;;;17.10;1.00;;;;;;8305918;28;20194;-78
2023/03/30 09:17:42;;;;;;;8.07;2.60;;;16.90;1.00;;;;;;8303085;28;20183;-79
2023/03/30 09:21:44;;;;;;;2.87;1.97;;;16.60;1.00;;;;;;8300399;28;20194;-79
2023/03/30 09:25:52;;;;;;;5.77;1.93;;;16.60;1.00;;;;;;8304973;28;20190;-78
2023/03/30 09:29:57;;;;;;;5.93;1.90;;;16.70;1.00;;;;;;8305335;28;20210;-78
2023/03/30 09:34:56;;;;;;;4.43;2.20;;;16.90;1.00;;;;;;8306752;28;20203;-77
2023/03/30 09:38:56;;;;;;;4.60;2.33;;;17.10;1.00;;;;;;8267752;28;20198;-78
2023/03/30 09:43:11;;;;;;;4.90;2.20;;;17.40;1.00;;;;;;8301851;28;20206;-78
2023/03/30 09:47:26;;;;;;;5.10;2.60;;;17.80;1.00;;;;;;8305750;28;20187;-79
2023/03/30 09:51:30;;;;;;;4.37;2.20;;;17.80;1.00;;;;;;8309300;28;20269;-79
2023/03/30 09:55:33;;;;;;;6.43;2.33;;;17.90;1.00;;;;;;8302975;28;20549;-79
2023/03/30 09:59:36;;;;;;;6.80;2.73;;;18.00;1.00;;;;;;8306924;28;20192;-79
2023/03/30 10:03:38;;;;;;;4.20;2.50;;;17.90;1.00;;;;;;8308024;28;20198;-79
2023/03/30 10:07:40;;;;;;;7.77;2.70;;;18.00;1.00;;;;;;8317407;28;20274;-79
2023/03/30 10:11:44;;;;;;;6.50;2.17;;;18.10;1.00;;;;;;8308887;28;20809;-79
2023/03/30 10:15:51;;;;;;;5.80;2.40;;;17.80;1.00;;;;;;8304726;28;20190;-78
2023/03/30 10:20:12;;;;;;;5.10;2.07;;;17.50;1.00;;;;;;8306776;28;20316;-78
2023/03/30 10:24:22;;;;;;;6.97;2.70;;;17.10;1.00;;;;;;8305467;28;20506;-78
2023/03/30 10:28:29;;;;;;;5.00;2.83;;;16.80;1.00;;;;;;8306529;28;20198;-78
2023/03/30 10:32:30;;;;;;;5.73;2.53;;;16.50;1.00;;;;;;8306547;28;20301;-78
2023/03/30 10:36:38;;;;;;;6.10;2.53;;;16.60;1.00;;;;;;8300127;28;20210;-79
2023/03/30 10:40:41;;;;;;;3.97;2.47;;;16.70;1.00;;;;;;8310885;28;20232;-78
2023/03/30 10:44:49;;;;;;;6.27;2.80;;;16.90;1.00;;;;;;8301334;28;20191;-78
2023/03/30 10:48:55;;;;;;;4.13;2.23;;;16.70;1.00;;;;;;8299431;28;20215;-79
2023/03/30 10:53:15;;;;;;;5.30;2.63;;;16.60;1.00;;;;;;8299506;28;20189;-78
2023/03/30 10:57:19;;;;;;;4.30;2.83;;;16.50;1.00;;;;;;8296722;28;20303;-78
2023/03/30 11:01:37;;;;;;;5.83;2.87;;;16.40;1.00;;;;;;8304701;28;20222;-79
2023/03/30 11:05:41;;;;;;;5.57;2.93;;;16.20;1.00;;;;;;8302503;28;20282;-78
2023/03/30 11:09:50;;;;;;;5.50;2.83;;;16.30;1.00;;;;;;8298993;28;20203;-78
2023/03/30 11:14:00;;;;;;;4.63;3.13;;;16.00;1.00;;;;;;8297572;28;20183;-79
2023/03/30 11:18:11;;;;;;;5.00;3.47;;;15.90;1.00;;;;;;8301263;28;20183;-79
2023/03/30 11:22:54;;;;;;;4.37;2.90;;;15.70;1.00;;;;;;8295666;28;20213;-79
2023/03/30 11:27:38;;;;;;;6.70;3.10;;;15.60;1.00;;;;;;8181741;28;20192;-79
2023/03/30 11:31:44;;;;;;;6.90;3.47;;;15.50;1.00;;;;;;8266262;28;20278;-80
2023/03/30 11:35:46;;;;;;;6.13;3.30;;;15.40;1.00;;;;;;8304552;28;20207;-78
2023/03/30 11:39:55;;;;;;;7.40;3.33;;;15.30;1.00;;;;;;8306180;28;20201;-78
2023/03/30 11:43:56;;;;;;;5.40;3.50;;;15.30;1.00;;;;;;8305726;28;20179;-78
2023/03/30 11:48:43;;;;;;;6.43;3.60;;;15.40;1.00;;;;;;8307117;28;20182;-77
2023/03/30 11:52:44;;;;;;;6.07;3.57;;;15.50;1.00;;;;;;8150330;29;20210;-78
2023/03/30 11:57:22;;;;;;;9.57;4.13;;;15.50;1.00;;;;;;8232932;28;20194;-78
2023/03/30 12:01:34;;;;;;;8.30;3.77;;;15.40;1.00;;;;;;8320161;28;20238;-80
2023/03/30 12:05:59;;;;;;;5.93;3.50;;;15.30;1.00;;;;;;8341239;28;20195;-77
2023/03/30 12:10:08;;;;;;;8.93;3.70;;;15.20;1.00;;;;;;8360837;28;20209;-80
2023/03/30 12:14:41;;;;;;;7.43;3.97;;;15.20;1.00;;;;;;8349925;28;20190;-79
2023/03/30 12:19:03;;;;;;;5.77;3.57;;;15.30;1.00;;;;;;8346546;28;20179;-78
2023/03/30 12:23:04;;;;;;;7.20;3.77;;;15.30;1.00;;;;;;8338127;28;20187;-79
2023/03/30 12:27:05;;;;;;;10.90;4.10;;;15.20;1.00;;;;;;8305624;28;20187;-79
2023/03/30 12:31:06;;;;;;;6.27;3.87;;;15.20;1.00;;;;;;8310860;28;20216;-78
2023/03/30 12:35:58;;;;;;;6.37;3.60;;;15.00;6.00;;;;;;8300220;28;20237;-79
2023/03/30 12:40:05;;;;;;;6.53;3.87;;;15.00;17.40;;;;;;8247237;28;20253;-78
2023/03/30 12:44:24;;;;;;;7.33;3.77;;;14.90;16.10;;;;;;8307904;28;20263;-78
2023/03/30 12:49:03;;;;;;;4.30;3.33;;;14.80;20.20;;;;;;8304467;28;20190;-79
2023/03/30 12:53:39;;;;;;;6.67;3.60;;;14.70;24.70;;;;;;8306468;28;20187;-78
2023/03/30 12:57:52;;;;;;;6.07;3.83;;;14.70;42.30;;;;;;8306665;28;20195;-79
2023/03/30 13:02:11;;;;;;;5.80;4.00;;;14.70;48.60;;;;;;8305370;28;20176;-79
2023/03/30 13:06:30;;;;;;;5.23;3.93;;;14.70;53.10;;;;;;8305400;28;20199;-79
2023/03/30 13:10:31;;;;;;;5.10;3.60;;;14.70;45.70;;;;;;8306645;28;20215;-78
2023/03/30 13:14:37;;;;;;;4.40;3.57;;;14.70;59.30;;;;;;8307119;28;20206;-77
2023/03/30 13:18:55;;;;;;;4.33;3.53;;;14.60;64.30;;;;;;8307437;28;20205;-78
2023/03/30 13:23:13;;;;;;;6.63;3.30;;;14.60;59.20;;;;;;8302829;28;20199;-78
2023/03/30 13:27:17;;;;;;;5.67;3.03;;;14.60;66.10;;;;;;8304508;28;20193;-78
2023/03/30 13:31:42;;;;;;;3.00;2.27;;;14.70;48.00;;;;;;8304723;28;20224;-79
2023/03/30 13:36:02;;;;;;;3.63;2.40;;;14.90;42.70;;;;;;8305931;28;20198;-78
2023/03/30 13:40:27;;;;;;;2.80;1.93;;;15.20;29.30;;;;;;8313758;28;20272;-79
2023/03/30 13:44:45;;;;;;;3.00;2.07;;;15.50;18.40;;;;;;8301297;28;20522;-79
2023/03/30 13:48:53;;;;;;;3.83;2.17;;;15.70;11.40;;;;;;8303150;28;20187;-79
2023/03/30 13:52:56;;;;;;;3.07;1.97;;;15.90;2.20;;;;;;8305511;28;20202;-79
2023/03/30 13:57:22;;;;;;;3.40;1.83;;;16.10;1.00;;;;;;8305977;28;20206;-79
2023/03/30 14:01:24;;;;;;;4.43;1.80;;;16.40;1.00;;;;;;8302872;28;20186;-77
2023/03/30 14:05:26;;;;;;;3.47;1.87;;;16.70;1.00;;;;;;8310483;28;20191;-78
2023/03/30 14:09:27;;;;;;;3.73;1.83;;;16.80;1.00;;;;;;8309200;28;20207;-78
2023/03/30 14:13:28;;;;;;;2.27;1.60;;;16.90;1.00;;;;;;8302824;28;20194;-79
2023/03/30 14:17:29;;;;;;;2.37;1.50;;;16.80;1.00;;;;;;8307334;28;20187;-79
2023/03/30 14:21:30;;;;;;;2.23;1.37;;;16.60;1.00;;;;;;8303724;28;20301;-79
2023/03/30 14:25:37;;;;;;;2.10;1.20;;;16.50;1.00;;;;;;8301937;28;20191;-77
2023/03/30 14:29:45;;;;;;;4.17;1.47;;;16.50;1.00;;;;;;8299135;28;20218;-78
2023/03/30 14:33:47;;;;;;;2.37;1.17;;;16.60;1.00;;;;;;8303922;28;20186;-79
2023/03/30 14:37:48;;;;;;;3.30;1.00;;;16.70;1.00;;;;;;8301961;28;20245;-79
2023/03/30 14:41:50;;;;;;;1.77;1.17;;;16.70;1.00;;;;;;8311918;28;20187;-78
2023/03/30 14:45:55;;;;;;;1.83;1.30;;;16.80;1.00;;;;;;8306821;28;20187;-79
2023/03/30 14:50:04;;;;;;;2.30;1.30;;;16.90;1.00;;;;;;8299407;28;20206;-79
2023/03/30 14:54:06;;;;;;;2.07;1.13;;;17.00;1.00;;;;;;8316879;28;20181;-78
2023/03/30 14:58:12;;;;;;;2.97;1.40;;;16.90;1.00;;;;;;8299684;28;20187;-78
2023/03/30 15:02:20;;;;;;;2.17;1.30;;;16.80;1.00;;;;;;8297748;28;20191;-79
2023/03/30 15:06:23;;;;;;;1.73;1.20;;;16.60;1.00;;;;;;8302054;28;20218;-79
2023/03/30 15:10:44;;;;;;;1.80;1.30;;;16.30;1.00;;;;;;8308684;28;20750;-78
2023/03/30 15:14:47;;;;;;;2.73;1.50;;;16.00;1.00;;;;;;8310812;28;20194;-79
2023/03/30 15:18:51;;;;;;;3.33;1.70;;;15.80;1.00;;;;;;8316145;28;20435;-78
2023/03/30 15:22:52;;;;;;;3.27;1.60;;;15.60;1.00;;;;;;8326075;28;20186;-77
2023/03/30 15:26:57;;;;;;;3.53;1.87;;;15.50;1.00;;;;;;8323870;28;20214;-78
2023/03/30 15:30:58;;;;;;;3.77;2.30;;;15.40;1.00;;;;;;8350616;28;20203;-76
2023/03/30 15:35:21;;;;;;;3.57;1.83;;;15.40;1.00;;;;;;8341677;28;20226;-78
2023/03/30 15:39:26;;;;;;;3.90;2.27;;;15.40;1.00;;;;;;8341644;28;20225;-78
2023/03/30 15:43:32;;;;;;;4.23;2.00;;;15.40;1.00;;;;;;8343339;28;20190;-75
2023/03/30 15:47:33;;;;;;;2.53;2.03;;;15.40;1.00;;;;;;8330911;28;20183;-78
2023/03/30 15:51:47;;;;;;;4.70;2.07;;;15.40;1.00;;;;;;8315063;28;20245;-78
2023/03/30 15:55:50;;;;;;;3.97;2.03;;;15.50;1.00;;;;;;8310211;28;20211;-79
2023/03/30 15:59:56;;;;;;;5.37;2.63;;;15.70;1.00;;;;;;8301911;28;20187;-77
2023/03/30 16:04:00;;;;;;;4.30;2.27;;;15.80;1.00;;;;;;8310529;28;20190;-77
2023/03/30 16:08:01;;;;;;;3.77;2.53;;;15.80;1.00;;;;;;8316798;28;20261;-78
2023/03/30 16:12:02;;;;;;;4.70;2.73;;;15.70;1.00;;;;;;8304451;28;20297;-78
2023/03/30 16:16:03;;;;;;;4.30;2.83;;;15.50;1.00;;;;;;8309218;28;20257;-78
2023/03/30 16:20:28;;;;;;;2.97;2.33;;;15.20;1.00;;;;;;8312512;28;20229;-77
2023/03/30 16:24:29;;;;;;;4.90;2.90;;;14.90;1.00;;;;;;8312330;28;20183;-77
2023/03/30 16:28:30;;;;;;;5.43;2.97;;;14.60;9.60;;;;;;8303413;28;20276;-77
2023/03/30 16:32:30;;;;;;;7.57;2.90;;;14.50;23.60;;;;;;8306518;28;20302;-77
2023/03/30 16:36:33;;;;;;;7.33;3.30;;;14.40;26.70;;;;;;8310792;28;20198;-77
2023/03/30 16:40:38;;;;;;;4.77;3.23;;;14.20;39.60;;;;;;8307402;28;20193;-78
2023/03/30 16:44:38;;;;;;;5.17;3.23;;;14.00;57.50;;;;;;8311263;28;20183;-78
2023/03/30 16:48:40;;;;;;;6.70;3.27;;;13.80;82.10;;;;;;8309081;28;20187;-78
2023/03/30 16:52:42;;;;;;;5.07;3.50;;;13.60;99.60;;;;;;8304204;28;20233;-78
2023/03/30 16:56:43;;;;;;;5.17;3.23;;;13.50;99.90;;;;;;8310135;28;20191;-78
2023/03/30 17:00:47;;;;;;;5.43;4.00;;;13.30;99.90;;;;;;8299018;28;20190;-78
2023/03/30 17:04:47;;;;;;;5.17;3.97;;;13.20;99.90;;;;;;8296910;28;20257;-78
2023/03/30 17:08:49;;;;;;;7.33;4.07;;;13.10;99.90;;;;;;8314358;28;20274;-77
2023/03/30 17:12:54;;;;;;;5.73;3.83;;;13.20;99.90;;;;;;8305946;28;20227;-77
2023/03/30 17:16:55;;;;;;;8.07;4.00;;;13.20;99.90;;;;;;8305454;28;20175;-78
2023/03/30 17:20:58;;;;;;;5.40;3.60;;;13.30;99.90;;;;;;8308441;28;20313;-77
2023/03/30 17:24:59;;;;;;;16.20;8.23;;;13.30;99.90;;;;;;8300422;28;20183;-78
2023/03/30 17:29:00;;;;;;;7.30;4.07;;;13.30;99.90;;;;;;8314492;28;20188;-78
2023/03/30 17:33:00;;;;;;;5.60;2.90;;;13.20;99.90;;;;;;8300846;28;20892;-77
2023/03/30 17:37:01;;;;;;;5.50;2.13;;;13.10;99.90;;;;;;8305173;28;20202;-77
2023/03/30 17:41:02;;;;;;;11.60;6.67;;;13.00;99.90;;;;;;8311108;28;20428;-77
2023/03/30 17:45:04;;;;;;;1.83;1.50;;;12.70;99.90;;;;;;8302859;28;20285;-77
2023/03/30 17:49:14;;;;;;;4.10;1.70;;;12.50;99.90;;;;;;8305588;28;20186;-78
2023/03/30 17:53:16;;;;;;;7.47;2.03;;;12.20;99.90;;;;;;8312037;28;20194;-83
2023/03/30 17:57:17;;;;;;;5.67;1.80;;;12.00;1.00;;;;;;8308774;28;20197;-82
2023/03/30 18:01:18;;;;;;;2.47;1.97;;;11.80;1.00;;;;;;8310679;28;20186;-83
2023/03/30 18:05:21;;;;;;;4.73;2.10;;;11.60;99.90;;;;;;8311389;28;20191;-82
2023/03/30 18:09:23;;;;;;;5.30;1.87;;;11.50;99.90;;;;;;8299806;28;20178;-82
2023/03/30 18:13:25;;;;;;;2.63;1.53;;;11.30;99.90;;;;;;8303477;28;20198;-82
2023/03/30 18:17:26;;;;;;;7.57;3.17;;;11.20;99.90;;;;;;8308917;28;20237;-82
2023/03/30 18:21:28;;;;;;;6.17;2.27;;;11.10;99.90;;;;;;8300586;28;20224;-82
2023/03/30 18:25:29;;;;;;;39.47;16.23;;;11.10;99.90;;;;;;8312245;28;20197;-81
2023/03/30 18:29:30;;;;;;;40.53;17.17;;;11.00;1.00;;;;;;8310476;28;20520;-81
2023/03/30 18:33:32;;;;;;;15.00;7.20;;;10.90;1.00;;;;;;8305968;28;20194;-81
2023/03/30 18:37:32;;;;;;;22.77;11.93;;;10.90;1.00;;;;;;8314065;28;20213;-80
2023/03/30 18:41:33;;;;;;;5.57;2.77;;;10.80;99.90;;;;;;8303982;28;20208;-80
2023/03/30 18:45:37;;;;;;;5.70;2.27;;;10.80;99.90;;;;;;8308879;28;20464;-80
2023/03/30 18:49:38;;;;;;;3.87;1.87;;;10.70;99.90;;;;;;8310572;28;20216;-81
2023/03/30 18:53:39;;;;;;;2.87;2.10;;;10.50;1.00;;;;;;8306136;28;20204;-80
2023/03/30 18:57:40;;;;;;;2.23;1.83;;;10.40;1.00;;;;;;8308416;28;20183;-79
2023/03/30 19:01:44;;;;;;;3.40;2.00;;;10.20;99.90;;;;;;8304111;28;20209;-80
2023/03/30 19:05:45;;;;;;;5.10;2.90;;;10.10;99.90;;;;;;8308524;28;20499;-80
2023/03/30 19:09:46;;;;;;;5.90;3.10;;;10.00;99.90;;;;;;8316415;28;20271;-80
2023/03/30 19:13:47;;;;;;;7.37;3.93;;;9.90;37.90;;;;;;8316449;28;20216;-80
2023/03/30 19:17:48;;;;;;;6.93;3.90;;;9.80;99.90;;;;;;8309905;28;20193;-80
2023/03/30 19:21:56;;;;;;;6.00;3.97;;;9.70;99.90;;;;;;8314576;28;20199;-80
2023/03/30 19:25:57;;;;;;;6.73;4.53;;;9.60;83.30;;;;;;8312573;28;20196;-81
2023/03/30 19:29:58;;;;;;;9.33;5.03;;;9.50;1.00;;;;;;8313991;28;20208;-81
2023/03/30 19:33:59;;;;;;;7.43;4.60;;;9.40;99.90;;;;;;8308444;28;20189;-81
2023/03/30 19:38:00;;;;;;;7.53;4.30;;;9.30;58.50;;;;;;8312901;28;20237;-81
2023/03/30 19:42:01;;;;;;;6.50;4.13;;;9.10;99.90;;;;;;8315179;28;20194;-80
2023/03/30 19:46:03;;;;;;;7.63;3.93;;;9.10;99.90;;;;;;8312603;28;20205;-82
2023/03/30 19:50:09;;;;;;;6.20;4.47;;;9.00;99.90;;;;;;8308253;28;20199;-80
2023/03/30 19:54:10;;;;;;;6.00;3.70;;;8.90;99.90;;;;;;8307502;28;20553;-81
2023/03/30 19:58:12;;;;;;;8.40;4.93;;;8.80;99.90;;;;;;8312564;28;20188;-80
2023/03/30 20:02:15;;;;;;;7.73;5.03;;;8.80;99.90;;;;;;8314182;28;20218;-80
2023/03/30 20:06:15;;;;;;;9.93;5.90;;;8.70;99.90;;;;;;8326319;28;20241;-81
2023/03/30 20:10:20;;;;;;;8.77;5.97;;;8.70;99.90;;;;;;8310191;28;20215;-81
2023/03/30 20:14:21;;;;;;;7.53;5.07;;;8.70;99.90;;;;;;8314287;28;20270;-81
2023/03/30 20:18:22;;;;;;;8.17;5.40;;;8.60;99.90;;;;;;8305048;28;20189;-81
2023/03/30 20:22:24;;;;;;;8.00;5.43;;;8.60;99.90;;;;;;8307505;28;20199;-81
2023/03/30 20:26:29;;;;;;;8.60;5.00;;;8.50;99.90;;;;;;8314781;28;20196;-81
2023/03/30 20:30:30;;;;;;;9.07;5.33;;;8.40;99.90;;;;;;8314155;28;20293;-81
2023/03/30 20:34:32;;;;;;;9.47;5.17;;;8.40;99.90;;;;;;8309269;28;20233;-80
2023/03/30 20:38:38;;;;;;;6.53;4.53;;;8.30;99.90;;;;;;8305193;28;20180;-81
2023/03/30 20:42:39;;;;;;;6.83;4.37;;;8.30;99.90;;;;;;8309561;28;20232;-81
2023/03/30 20:46:42;;;;;;;8.90;4.10;;;8.20;99.90;;;;;;8309360;28;20183;-81
2023/03/30 20:50:43;;;;;;;7.13;4.40;;;8.20;99.90;;;;;;8311490;28;20210;-81
2023/03/30 20:54:44;;;;;;;6.70;4.53;;;8.20;99.90;;;;;;8317110;28;20201;-82
2023/03/30 20:58:45;;;;;;;6.33;4.30;;;8.10;99.90;;;;;;8311394;28;20190;-82
2023/03/30 21:02:46;;;;;;;6.17;4.23;;;8.10;99.90;;;;;;8314228;28;20202;-81
2023/03/30 21:06:48;;;;;;;7.43;4.23;;;8.10;99.90;;;;;;8310800;28;20186;-81
2023/03/30 21:10:49;;;;;;;10.13;5.03;;;8.10;99.90;;;;;;8308959;28;20211;-82
2023/03/30 21:14:50;;;;;;;8.07;5.13;;;8.10;99.90;;;;;;8310775;28;20273;-81
2023/03/30 21:18:51;;;;;;;7.97;4.63;;;8.10;99.90;;;;;;8302287;28;20269;-81
2023/03/30 21:22:52;;;;;;;7.30;4.90;;;8.00;99.90;;;;;;8308057;28;20198;-81
2023/03/30 21:26:53;;;;;;;8.37;4.80;;;7.90;99.90;;;;;;8312294;28;20187;-81
2023/03/30 21:30:58;;;;;;;6.60;4.50;;;7.80;99.90;;;;;;8314696;28;20221;-81
2023/03/30 21:34:58;;;;;;;10.33;4.37;;;7.70;99.90;;;;;;8307069;28;20226;-81